sensor_id;sensor_type;location;lat;lon;timestamp;pressure;altitude;pressure_sealevel;temperature;humidity
73240;BME280;61452;40.054;4.110;2023-04-20T00:03:53;101423.50;;;18.00;53.98
73240;BME280;61452;40.054;4.110;2023-04-20T00:08:56;101427.44;;;17.94;54.40
73240;BME280;61452;40.054;4.110;2023-04-20T00:13:58;101426.50;;;17.95;54.41
73240;BME280;61452;40.054;4.110;2023-04-20T00:19:00;101426.59;;;17.94;54.33
73240;BME280;61452;40.054;4.110;2023-04-20T00:24:03;101428.41;;;17.93;54.37
73240;BME280;61452;40.054;4.110;2023-04-20T00:29:05;101411.41;;;17.96;53.75
73240;BME280;61452;40.054;4.110;2023-04-20T00:34:07;101400.69;;;17.97;53.89
73240;BME280;61452;40.054;4.110;2023-04-20T00:39:09;101396.44;;;17.95;54.37
73240;BME280;61452;40.054;4.110;2023-04-20T00:44:11;101398.34;;;17.93;54.80
73240;BME280;61452;40.054;4.110;2023-04-20T00:49:14;101376.16;;;17.94;54.33
73240;BME280;61452;40.054;4.110;2023-04-20T00:54:17;101374.34;;;17.94;54.03
73240;BME280;61452;40.054;4.110;2023-04-20T00:59:20;101374.25;;;17.96;54.12
73240;BME280;61452;40.054;4.110;2023-04-20T01:04:23;101361.28;;;17.91;54.29
73240;BME280;61452;40.054;4.110;2023-04-20T01:09:25;101361.19;;;17.93;54.25
73240;BME280;61452;40.054;4.110;2023-04-20T01:14:29;101354.19;;;17.92;54.27
73240;BME280;61452;40.054;4.110;2023-04-20T01:19:31;101355.88;;;17.93;54.08
73240;BME280;61452;40.054;4.110;2023-04-20T01:24:36;101354.19;;;17.92;54.30
73240;BME280;61452;40.054;4.110;2023-04-20T01:29:38;101350.91;;;17.88;54.18
73240;BME280;61452;40.054;4.110;2023-04-20T01:34:43;101345.59;;;17.88;54.24
73240;BME280;61452;40.054;4.110;2023-04-20T01:39:45;101330.53;;;17.89;54.09
73240;BME280;61452;40.054;4.110;2023-04-20T01:44:47;101332.94;;;17.92;53.93
73240;BME280;61452;40.054;4.110;2023-04-20T01:49:49;101325.09;;;17.90;54.37
73240;BME280;61452;40.054;4.110;2023-04-20T01:54:51;101323.50;;;17.88;54.44
73240;BME280;61452;40.054;4.110;2023-04-20T01:59:54;101310.44;;;17.85;54.68
73240;BME280;61452;40.054;4.110;2023-04-20T02:04:56;101305.97;;;17.85;54.30
73240;BME280;61452;40.054;4.110;2023-04-20T02:09:58;101302.38;;;17.86;54.16
73240;BME280;61452;40.054;4.110;2023-04-20T02:15:01;101294.31;;;17.88;54.15
73240;BME280;61452;40.054;4.110;2023-04-20T02:20:04;101292.72;;;17.85;54.01
73240;BME280;61452;40.054;4.110;2023-04-20T02:25:10;101291.16;;;17.83;54.09
73240;BME280;61452;40.054;4.110;2023-04-20T02:30:13;101273.41;;;17.83;54.11
73240;BME280;61452;40.054;4.110;2023-04-20T02:35:16;101266.41;;;17.82;53.99
73240;BME280;61452;40.054;4.110;2023-04-20T02:40:18;101265.22;;;17.86;54.01
73240;BME280;61452;40.054;4.110;2023-04-20T02:45:20;101274.13;;;17.85;54.02
73240;BME280;61452;40.054;4.110;2023-04-20T02:50:23;101267.38;;;17.81;54.11
73240;BME280;61452;40.054;4.110;2023-04-20T02:55:35;101265.56;;;17.82;54.25
73240;BME280;61452;40.054;4.110;2023-04-20T03:00:46;101256.66;;;17.83;54.01
73240;BME280;61452;40.054;4.110;2023-04-20T03:05:49;101261.97;;;17.83;53.86
73240;BME280;61452;40.054;4.110;2023-04-20T03:10:51;101257.50;;;17.83;54.00
73240;BME280;61452;40.054;4.110;2023-04-20T03:15:54;101255.16;;;17.78;54.05
73240;BME280;61452;40.054;4.110;2023-04-20T03:21:09;101248.88;;;17.79;53.93
73240;BME280;61452;40.054;4.110;2023-04-20T03:26:12;101242.63;;;17.81;53.93
73240;BME280;61452;40.054;4.110;2023-04-20T03:31:46;101244.34;;;17.82;53.95
73240;BME280;61452;40.054;4.110;2023-04-20T03:36:49;101248.13;;;17.77;54.06
73240;BME280;61452;40.054;4.110;2023-04-20T03:41:52;101253.59;;;17.76;53.82
73240;BME280;61452;40.054;4.110;2023-04-20T03:46:55;101236.91;;;17.74;53.85
73240;BME280;61452;40.054;4.110;2023-04-20T03:51:57;101240.19;;;17.77;53.91
73240;BME280;61452;40.054;4.110;2023-04-20T03:57:00;101238.38;;;17.78;54.13
73240;BME280;61452;40.054;4.110;2023-04-20T04:02:03;101239.47;;;17.75;54.21
73240;BME280;61452;40.054;4.110;2023-04-20T04:07:06;101235.31;;;17.71;54.42
73240;BME280;61452;40.054;4.110;2023-04-20T04:12:10;101229.69;;;17.76;54.03
73240;BME280;61452;40.054;4.110;2023-04-20T04:17:13;101238.28;;;17.79;53.85
73240;BME280;61452;40.054;4.110;2023-04-20T04:22:16;101232.13;;;17.79;54.32
73240;BME280;61452;40.054;4.110;2023-04-20T04:27:37;101236.91;;;17.74;54.51
73240;BME280;61452;40.054;4.110;2023-04-20T04:32:42;101228.75;;;17.77;54.22
73240;BME280;61452;40.054;4.110;2023-04-20T04:37:45;101231.41;;;17.77;53.96
73240;BME280;61452;40.054;4.110;2023-04-20T04:42:49;101228.84;;;17.75;54.18
73240;BME280;61452;40.054;4.110;2023-04-20T04:47:52;101233.31;;;17.75;54.38
73240;BME280;61452;40.054;4.110;2023-04-20T04:52:54;101231.59;;;17.74;54.47
73240;BME280;61452;40.054;4.110;2023-04-20T04:57:57;101234.25;;;17.74;54.49
73240;BME280;61452;40.054;4.110;2023-04-20T05:02:59;101228.94;;;17.74;54.34
73240;BME280;61452;40.054;4.110;2023-04-20T05:08:02;101242.13;;;17.75;54.41
73240;BME280;61452;40.054;4.110;2023-04-20T05:13:04;101241.38;;;17.73;54.63
73240;BME280;61452;40.054;4.110;2023-04-20T05:18:06;101248.56;;;17.71;54.21
73240;BME280;61452;40.054;4.110;2023-04-20T05:23:08;101251.97;;;17.73;54.05
73240;BME280;61452;40.054;4.110;2023-04-20T05:28:10;101246.56;;;17.75;54.16
73240;BME280;61452;40.054;4.110;2023-04-20T05:33:13;101241.47;;;17.72;54.24
73240;BME280;61452;40.054;4.110;2023-04-20T05:38:15;101243.41;;;17.70;54.23
73240;BME280;61452;40.054;4.110;2023-04-20T05:43:17;101254.03;;;17.70;54.27
73240;BME280;61452;40.054;4.110;2023-04-20T05:48:20;101257.53;;;17.70;54.22
73240;BME280;61452;40.054;4.110;2023-04-20T05:53:22;101266.34;;;17.71;54.50
73240;BME280;61452;40.054;4.110;2023-04-20T05:58:24;101275.34;;;17.68;54.51
73240;BME280;61452;40.054;4.110;2023-04-20T06:03:28;101255.69;;;17.58;54.76
73240;BME280;61452;40.054;4.110;2023-04-20T06:08:30;101271.75;;;17.69;54.54
73240;BME280;61452;40.054;4.110;2023-04-20T06:13:32;101269.09;;;17.69;54.23
73240;BME280;61452;40.054;4.110;2023-04-20T06:18:35;101268.22;;;17.69;54.15
73240;BME280;61452;40.054;4.110;2023-04-20T06:23:38;101268.44;;;17.66;54.47
73240;BME280;61452;40.054;4.110;2023-04-20T06:28:40;101261.47;;;17.65;54.18
73240;BME280;61452;40.054;4.110;2023-04-20T06:33:42;101264.13;;;17.65;54.13
73240;BME280;61452;40.054;4.110;2023-04-20T06:38:44;101269.28;;;17.66;54.16
73240;BME280;61452;40.054;4.110;2023-04-20T06:43:47;101267.59;;;17.65;54.19
73240;BME280;61452;40.054;4.110;2023-04-20T06:48:49;101263.34;;;17.63;54.16
73240;BME280;61452;40.054;4.110;2023-04-20T06:53:51;101257.94;;;17.64;54.14
73240;BME280;61452;40.054;4.110;2023-04-20T06:58:53;101262.50;;;17.62;54.18
73240;BME280;61452;40.054;4.110;2023-04-20T07:03:55;101266.88;;;17.63;54.05
73240;BME280;61452;40.054;4.110;2023-04-20T07:08:58;101269.63;;;17.62;54.10
73240;BME280;61452;40.054;4.110;2023-04-20T07:14:00;101255.50;;;17.61;54.06
73240;BME280;61452;40.054;4.110;2023-04-20T07:19:02;101261.56;;;17.63;53.99
73240;BME280;61452;40.054;4.110;2023-04-20T07:24:04;101261.56;;;17.63;53.87
73240;BME280;61452;40.054;4.110;2023-04-20T07:29:07;101259.84;;;17.62;54.08
73240;BME280;61452;40.054;4.110;2023-04-20T07:34:09;101263.47;;;17.61;54.07
73240;BME280;61452;40.054;4.110;2023-04-20T07:39:11;101261.66;;;17.62;54.00
73240;BME280;61452;40.054;4.110;2023-04-20T07:44:14;101268.66;;;17.63;53.74
73240;BME280;61452;40.054;4.110;2023-04-20T07:49:16;101259.84;;;17.62;53.90
73240;BME280;61452;40.054;4.110;2023-04-20T07:54:18;101259.97;;;17.61;53.93
73240;BME280;61452;40.054;4.110;2023-04-20T07:59:20;101264.50;;;17.59;53.95
73240;BME280;61452;40.054;4.110;2023-04-20T08:04:22;101264.50;;;17.59;53.82
73240;BME280;61452;40.054;4.110;2023-04-20T08:09:25;101268.84;;;17.60;53.84
73240;BME280;61452;40.054;4.110;2023-04-20T08:14:27;101267.91;;;17.61;53.84
73240;BME280;61452;40.054;4.110;2023-04-20T08:19:29;101267.91;;;17.61;53.80
73240;BME280;61452;40.054;4.110;2023-04-20T08:24:31;101269.63;;;17.62;54.03
73240;BME280;61452;40.054;4.110;2023-04-20T08:29:34;101264.41;;;17.60;54.20
73240;BME280;61452;40.054;4.110;2023-04-20T08:34:36;101260.88;;;17.60;54.01
73240;BME280;61452;40.054;4.110;2023-04-20T08:39:38;101266.13;;;17.61;53.90
73240;BME280;61452;40.054;4.110;2023-04-20T08:44:41;101269.63;;;17.62;54.01
73240;BME280;61452;40.054;4.110;2023-04-20T08:49:43;101273.13;;;17.62;54.00
73240;BME280;61452;40.054;4.110;2023-04-20T08:54:46;101267.06;;;17.60;54.01
73240;BME280;61452;40.054;4.110;2023-04-20T08:59:56;101275.88;;;17.61;53.97
73240;BME280;61452;40.054;4.110;2023-04-20T09:05:02;101278.44;;;17.62;53.94
73240;BME280;61452;40.054;4.110;2023-04-20T09:10:06;101282.03;;;17.61;53.72
73240;BME280;61452;40.054;4.110;2023-04-20T09:15:09;101283.84;;;17.61;53.78
73240;BME280;61452;40.054;4.110;2023-04-20T09:20:13;101290.94;;;17.60;53.90
73240;BME280;61452;40.054;4.110;2023-04-20T09:25:16;101280.44;;;17.59;53.92
73240;BME280;61452;40.054;4.110;2023-04-20T09:30:18;101271.41;;;17.61;53.74
73240;BME280;61452;40.054;4.110;2023-04-20T09:35:23;101271.41;;;17.61;53.62
73240;BME280;61452;40.054;4.110;2023-04-20T09:40:26;101266.00;;;17.63;53.71
73240;BME280;61452;40.054;4.110;2023-04-20T09:45:28;101258.16;;;17.61;53.78
73240;BME280;61452;40.054;4.110;2023-04-20T09:50:31;101258.22;;;17.60;53.69
73240;BME280;61452;40.054;4.110;2023-04-20T09:55:49;101255.50;;;17.61;53.56
73240;BME280;61452;40.054;4.110;2023-04-20T10:00:54;101253.59;;;17.63;53.57
73240;BME280;61452;40.054;4.110;2023-04-20T10:05:56;101255.31;;;17.64;53.64
73240;BME280;61452;40.054;4.110;2023-04-20T10:10:59;101252.00;;;17.61;53.77
73240;BME280;61452;40.054;4.110;2023-04-20T10:16:01;101252.84;;;17.61;53.75
73240;BME280;61452;40.054;4.110;2023-04-20T10:21:05;101238.63;;;17.62;53.84
73240;BME280;61452;40.054;4.110;2023-04-20T10:26:10;101230.56;;;17.64;53.70
73240;BME280;61452;40.054;4.110;2023-04-20T10:31:13;101235.88;;;17.64;53.60
73240;BME280;61452;40.054;4.110;2023-04-20T10:36:25;101231.63;;;17.61;54.11
73240;BME280;61452;40.054;4.110;2023-04-20T10:41:28;101227.19;;;17.62;54.12
73240;BME280;61452;40.054;4.110;2023-04-20T10:46:30;101217.41;;;17.62;54.07
73240;BME280;61452;40.054;4.110;2023-04-20T10:51:32;101205.94;;;17.62;54.16
73240;BME280;61452;40.054;4.110;2023-04-20T10:56:45;101212.00;;;17.64;54.10
73240;BME280;61452;40.054;4.110;2023-04-20T11:01:48;101203.91;;;17.65;54.13
73240;BME280;61452;40.054;4.110;2023-04-20T11:06:51;101195.25;;;17.63;54.16
73240;BME280;61452;40.054;4.110;2023-04-20T11:12:11;101191.75;;;17.63;54.10
73240;BME280;61452;40.054;4.110;2023-04-20T11:17:15;101188.00;;;17.65;54.00
73240;BME280;61452;40.054;4.110;2023-04-20T11:22:21;101180.03;;;17.65;54.32
73240;BME280;61452;40.054;4.110;2023-04-20T11:27:24;101178.22;;;17.66;54.54
73240;BME280;61452;40.054;4.110;2023-04-20T11:32:26;101159.81;;;17.64;54.50
73240;BME280;61452;40.054;4.110;2023-04-20T11:37:28;101148.19;;;17.65;54.29
73240;BME280;61452;40.054;4.110;2023-04-20T11:42:30;101158.72;;;17.67;54.16
73240;BME280;61452;40.054;4.110;2023-04-20T11:47:32;101152.44;;;17.68;54.16
73240;BME280;61452;40.054;4.110;2023-04-20T11:52:35;101156.81;;;17.69;54.31
73240;BME280;61452;40.054;4.110;2023-04-20T11:57:37;101152.56;;;17.66;54.24
73240;BME280;61452;40.054;4.110;2023-04-20T12:02:39;101160.31;;;17.69;54.16
73240;BME280;61452;40.054;4.110;2023-04-20T12:07:42;101155.00;;;17.69;54.36
73240;BME280;61452;40.054;4.110;2023-04-20T12:12:44;101156.56;;;17.72;54.17
73240;BME280;61452;40.054;4.110;2023-04-20T12:17:46;101156.69;;;17.70;54.25
73240;BME280;61452;40.054;4.110;2023-04-20T12:22:48;101156.56;;;17.72;54.38
73240;BME280;61452;40.054;4.110;2023-04-20T12:27:51;101138.13;;;17.70;54.31
73240;BME280;61452;40.054;4.110;2023-04-20T12:32:53;101149.47;;;17.72;54.15
73240;BME280;61452;40.054;4.110;2023-04-20T12:37:55;101141.50;;;17.72;54.26
73240;BME280;61452;40.054;4.110;2023-04-20T12:42:57;101138.00;;;17.72;54.26
73240;BME280;61452;40.054;4.110;2023-04-20T12:47:59;101135.34;;;17.72;54.30
73240;BME280;61452;40.054;4.110;2023-04-20T12:53:01;101147.56;;;17.74;54.13
73240;BME280;61452;40.054;4.110;2023-04-20T12:58:04;101137.03;;;17.73;54.13
73240;BME280;61452;40.054;4.110;2023-04-20T13:03:06;101137.03;;;17.73;54.22
73240;BME280;61452;40.054;4.110;2023-04-20T13:08:08;101135.25;;;17.73;54.33
73240;BME280;61452;40.054;4.110;2023-04-20T13:13:10;101132.47;;;17.75;54.08
73240;BME280;61452;40.054;4.110;2023-04-20T13:18:12;101135.03;;;17.76;54.05
73240;BME280;61452;40.054;4.110;2023-04-20T13:23:16;101138.63;;;17.75;54.19
73240;BME280;61452;40.054;4.110;2023-04-20T13:28:18;101137.69;;;17.76;54.10
73240;BME280;61452;40.054;4.110;2023-04-20T13:33:21;101132.38;;;17.76;54.09
73240;BME280;61452;40.054;4.110;2023-04-20T13:38:23;101118.25;;;17.76;53.97
73240;BME280;61452;40.054;4.110;2023-04-20T13:43:25;101115.38;;;17.79;54.12
73240;BME280;61452;40.054;4.110;2023-04-20T13:48:27;101105.72;;;17.78;54.19
73240;BME280;61452;40.054;4.110;2023-04-20T13:53:29;101100.53;;;17.76;54.10
73240;BME280;61452;40.054;4.110;2023-04-20T13:58:31;101090.78;;;17.77;54.09
73240;BME280;61452;40.054;4.110;2023-04-20T14:03:33;101088.94;;;17.77;53.95
73240;BME280;61452;40.054;4.110;2023-04-20T14:08:36;101087.03;;;17.79;53.91
73240;BME280;61452;40.054;4.110;2023-04-20T14:13:38;101075.47;;;17.81;53.74
73240;BME280;61452;40.054;4.110;2023-04-20T14:18:40;101078.97;;;17.81;53.86
73240;BME280;61452;40.054;4.110;2023-04-20T14:23:42;101070.16;;;17.81;53.80
73240;BME280;61452;40.054;4.110;2023-04-20T14:28:44;101070.91;;;17.83;53.87
73240;BME280;61452;40.054;4.110;2023-04-20T14:33:47;101062.09;;;17.82;53.86
73240;BME280;61452;40.054;4.110;2023-04-20T14:38:50;101056.78;;;17.82;53.89
73240;BME280;61452;40.054;4.110;2023-04-20T14:43:52;101052.44;;;17.81;53.88
73240;BME280;61452;40.054;4.110;2023-04-20T14:48:54;101047.00;;;17.83;53.74
73240;BME280;61452;40.054;4.110;2023-04-20T14:53:56;101049.53;;;17.84;53.66
73240;BME280;61452;40.054;4.110;2023-04-20T14:58:58;101038.09;;;17.84;53.68
73240;BME280;61452;40.054;4.110;2023-04-20T15:04:01;101035.31;;;17.85;53.91
73240;BME280;61452;40.054;4.110;2023-04-20T15:09:03;101033.28;;;17.89;53.68
73240;BME280;61452;40.054;4.110;2023-04-20T15:14:05;101029.88;;;17.87;53.86
73240;BME280;61452;40.054;4.110;2023-04-20T15:19:07;101019.28;;;17.87;53.76
73240;BME280;61452;40.054;4.110;2023-04-20T15:24:09;101024.59;;;17.87;53.88
73240;BME280;61452;40.054;4.110;2023-04-20T15:29:11;101018.22;;;17.89;53.63
73240;BME280;61452;40.054;4.110;2023-04-20T15:34:13;101015.56;;;17.89;53.70
73240;BME280;61452;40.054;4.110;2023-04-20T15:39:18;101020.72;;;17.91;53.69
73240;BME280;61452;40.054;4.110;2023-04-20T15:44:20;101015.41;;;17.91;54.01
73240;BME280;61452;40.054;4.110;2023-04-20T15:49:22;101020.03;;;17.89;53.91
73240;BME280;61452;40.054;4.110;2023-04-20T15:54:25;101001.06;;;17.82;53.72
73240;BME280;61452;40.054;4.110;2023-04-20T15:59:27;101005.66;;;17.91;53.87
73240;BME280;61452;40.054;4.110;2023-04-20T16:04:29;101012.66;;;17.92;53.59
73240;BME280;61452;40.054;4.110;2023-04-20T16:09:31;101013.50;;;17.93;53.66
73240;BME280;61452;40.054;4.110;2023-04-20T16:14:33;101001.94;;;17.94;53.62
73240;BME280;61452;40.054;4.110;2023-04-20T16:19:35;100995.66;;;17.95;53.86
73240;BME280;61452;40.054;4.110;2023-04-20T16:24:38;100989.41;;;17.96;53.70
73240;BME280;61452;40.054;4.110;2023-04-20T16:29:40;100986.84;;;17.94;53.78
73240;BME280;61452;40.054;4.110;2023-04-20T16:34:42;100989.16;;;17.99;53.79
73240;BME280;61452;40.054;4.110;2023-04-20T16:39:45;100990.00;;;17.99;53.94
73240;BME280;61452;40.054;4.110;2023-04-20T16:44:47;100990.97;;;17.98;54.16
73240;BME280;61452;40.054;4.110;2023-04-20T16:49:49;100989.03;;;18.00;53.92
73240;BME280;61452;40.054;4.110;2023-04-20T16:54:51;100990.97;;;17.98;53.79
73240;BME280;61452;40.054;4.110;2023-04-20T16:59:53;100999.66;;;18.00;53.73
73240;BME280;61452;40.054;4.110;2023-04-20T17:04:55;101001.34;;;18.01;53.83
73240;BME280;61452;40.054;4.110;2023-04-20T17:09:57;101014.50;;;18.03;53.83
73240;BME280;61452;40.054;4.110;2023-04-20T17:14:59;101012.81;;;18.02;53.92
73240;BME280;61452;40.054;4.110;2023-04-20T17:20:02;101022.59;;;18.01;53.84
73240;BME280;61452;40.054;4.110;2023-04-20T17:25:08;101019.69;;;18.04;53.80
73240;BME280;61452;40.054;4.110;2023-04-20T17:30:10;101022.97;;;18.08;54.22
73240;BME280;61452;40.054;4.110;2023-04-20T17:35:13;101034.56;;;18.07;54.00
73240;BME280;61452;40.054;4.110;2023-04-20T17:40:15;101037.41;;;18.04;53.66
73240;BME280;61452;40.054;4.110;2023-04-20T17:45:17;101034.66;;;18.05;53.63
73240;BME280;61452;40.054;4.110;2023-04-20T17:50:19;101052.41;;;18.05;53.80
73240;BME280;61452;40.054;4.110;2023-04-20T17:55:21;101048.78;;;18.06;53.76
73240;BME280;61452;40.054;4.110;2023-04-20T18:00:23;101066.28;;;18.08;53.85
73240;BME280;61452;40.054;4.110;2023-04-20T18:05:27;101052.03;;;18.09;53.80
73240;BME280;61452;40.054;4.110;2023-04-20T18:10:29;101047.81;;;18.07;53.81
73240;BME280;61452;40.054;4.110;2023-04-20T18:15:32;101051.06;;;17.99;53.77
73240;BME280;61452;40.054;4.110;2023-04-20T18:20:34;101067.38;;;18.06;53.68
73240;BME280;61452;40.054;4.110;2023-04-20T18:25:37;101085.84;;;18.07;53.70
73240;BME280;61452;40.054;4.110;2023-04-20T18:30:39;101088.34;;;18.09;53.88
73240;BME280;61452;40.054;4.110;2023-04-20T18:35:43;101089.19;;;18.09;53.84
73240;BME280;61452;40.054;4.110;2023-04-20T18:40:46;101094.50;;;18.09;53.88
73240;BME280;61452;40.054;4.110;2023-04-20T18:45:48;101085.84;;;18.07;53.83
73240;BME280;61452;40.054;4.110;2023-04-20T18:50:50;101090.91;;;18.10;53.72
73240;BME280;61452;40.054;4.110;2023-04-20T18:55:52;101106.81;;;18.10;53.83
73240;BME280;61452;40.054;4.110;2023-04-20T19:00:54;101102.38;;;18.11;53.84
73240;BME280;61452;40.054;4.110;2023-04-20T19:05:57;101106.81;;;18.10;53.73
73240;BME280;61452;40.054;4.110;2023-04-20T19:10:59;101112.13;;;18.10;53.87
73240;BME280;61452;40.054;4.110;2023-04-20T19:16:01;101119.16;;;18.11;53.71
73240;BME280;61452;40.054;4.110;2023-04-20T19:21:03;101112.13;;;18.10;53.79
73240;BME280;61452;40.054;4.110;2023-04-20T19:26:06;101106.94;;;18.09;54.07
73240;BME280;61452;40.054;4.110;2023-04-20T19:31:08;101105.03;;;18.11;54.56
73240;BME280;61452;40.054;4.110;2023-04-20T19:36:11;101108.53;;;18.11;54.16
73240;BME280;61452;40.054;4.110;2023-04-20T19:41:13;101093.16;;;18.04;54.24
73240;BME280;61452;40.054;4.110;2023-04-20T19:46:16;101105.28;;;18.08;53.86
73240;BME280;61452;40.054;4.110;2023-04-20T19:51:18;101114.59;;;18.13;54.01
73240;BME280;61452;40.054;4.110;2023-04-20T19:56:20;101114.69;;;18.12;54.11
73240;BME280;61452;40.054;4.110;2023-04-20T20:01:22;101113.09;;;18.09;54.14
73240;BME280;61452;40.054;4.110;2023-04-20T20:06:24;101105.78;;;18.13;53.89
73240;BME280;61452;40.054;4.110;2023-04-20T20:11:27;101094.31;;;18.12;53.85
73240;BME280;61452;40.054;4.110;2023-04-20T20:16:29;101099.72;;;18.11;53.97
73240;BME280;61452;40.054;4.110;2023-04-20T20:21:32;101084.53;;;18.13;54.20
73240;BME280;61452;40.054;4.110;2023-04-20T20:26:34;101095.16;;;18.13;54.07
73240;BME280;61452;40.054;4.110;2023-04-20T20:31:36;101090.91;;;18.10;54.12
73240;BME280;61452;40.054;4.110;2023-04-20T20:36:39;101100.56;;;18.11;53.99
73240;BME280;61452;40.054;4.110;2023-04-20T20:41:43;101098.75;;;18.12;54.05
73240;BME280;61452;40.054;4.110;2023-04-20T20:46:45;101114.69;;;18.12;53.92
73240;BME280;61452;40.054;4.110;2023-04-20T20:51:47;101112.03;;;18.12;53.91
73240;BME280;61452;40.054;4.110;2023-04-20T20:56:49;101103.44;;;18.08;54.01
73240;BME280;61452;40.054;4.110;2023-04-20T21:01:52;101111.06;;;18.13;53.78
73240;BME280;61452;40.054;4.110;2023-04-20T21:06:54;101111.94;;;18.13;53.83
73240;BME280;61452;40.054;4.110;2023-04-20T21:11:56;101108.53;;;18.11;53.85
73240;BME280;61452;40.054;4.110;2023-04-20T21:16:59;101102.47;;;18.09;54.11
73240;BME280;61452;40.054;4.110;2023-04-20T21:22:01;101107.78;;;18.09;53.92
73240;BME280;61452;40.054;4.110;2023-04-20T21:27:03;101110.13;;;18.14;53.73
73240;BME280;61452;40.054;4.110;2023-04-20T21:32:05;101100.56;;;18.11;53.72
73240;BME280;61452;40.054;4.110;2023-04-20T21:37:07;101110.22;;;18.12;53.93
73240;BME280;61452;40.054;4.110;2023-04-20T21:42:09;101116.38;;;18.13;53.89
73240;BME280;61452;40.054;4.110;2023-04-20T21:47:11;101119.88;;;18.13;53.72
73240;BME280;61452;40.054;4.110;2023-04-20T21:52:13;101124.34;;;18.13;53.80
73240;BME280;61452;40.054;4.110;2023-04-20T21:57:16;101131.47;;;18.12;54.07
73240;BME280;61452;40.054;4.110;2023-04-20T22:02:18;101129.66;;;18.13;54.53
73240;BME280;61452;40.054;4.110;2023-04-20T22:07:20;101124.34;;;18.13;54.05
73240;BME280;61452;40.054;4.110;2023-04-20T22:12:24;101114.59;;;18.13;53.99
73240;BME280;61452;40.054;4.110;2023-04-20T22:17:40;101119.03;;;18.13;53.89
73240;BME280;61452;40.054;4.110;2023-04-20T22:22:42;101118.31;;;18.11;54.16
73240;BME280;61452;40.054;4.110;2023-04-20T22:27:44;101123.59;;;18.11;54.53
73240;BME280;61452;40.054;4.110;2023-04-20T22:32:47;101119.16;;;18.11;54.41
73240;BME280;61452;40.054;4.110;2023-04-20T22:37:49;101123.59;;;18.11;54.13
73240;BME280;61452;40.054;4.110;2023-04-20T22:42:51;101122.66;;;18.12;54.22
73240;BME280;61452;40.054;4.110;2023-04-20T22:47:53;101118.31;;;18.11;54.13
73240;BME280;61452;40.054;4.110;2023-04-20T22:52:56;101121.81;;;18.11;54.28
73240;BME280;61452;40.054;4.110;2023-04-20T22:57:58;101120.84;;;18.12;54.31
73240;BME280;61452;40.054;4.110;2023-04-20T23:03:00;101115.66;;;18.11;54.36
73240;BME280;61452;40.054;4.110;2023-04-20T23:08:02;101126.16;;;18.12;54.57
73240;BME280;61452;40.054;4.110;2023-04-20T23:13:04;101120.00;;;18.12;54.19
73240;BME280;61452;40.054;4.110;2023-04-20T23:18:06;101111.19;;;18.11;54.15
73240;BME280;61452;40.054;4.110;2023-04-20T23:23:08;101122.66;;;18.12;54.06
73240;BME280;61452;40.054;4.110;2023-04-20T23:28:11;101121.06;;;18.09;54.60
73240;BME280;61452;40.054;4.110;2023-04-20T23:33:13;101119.16;;;18.11;54.44
73240;BME280;61452;40.054;4.110;2023-04-20T23:38:15;101118.19;;;18.12;54.35
73240;BME280;61452;40.054;4.110;2023-04-20T23:43:18;101105.13;;;18.09;54.23
73240;BME280;61452;40.054;4.110;2023-04-20T23:48:21;101106.09;;;18.08;54.38
73240;BME280;61452;40.054;4.110;2023-04-20T23:53:23;101103.31;;;18.10;54.45
73240;BME280;61452;40.054;4.110;2023-04-20T23:58:26;101109.59;;;18.09;54.33
